sensor_id;sensor_type;location;lat;lon;timestamp;pressure;altitude;pressure_sealevel;temperature;humidity
18858;BME280;9558;50.178;8.370;2023-11-21T00:01:05;97508.06;;;8.59;100.00
18858;BME280;9558;50.178;8.370;2023-11-21T00:03:54;97515.81;;;8.59;100.00
18858;BME280;9558;50.178;8.370;2023-11-21T00:06:41;97513.56;;;8.56;100.00
18858;BME280;9558;50.178;8.370;2023-11-21T00:09:27;97512.94;;;8.54;100.00
18858;BME280;9558;50.178;8.370;2023-11-21T00:12:15;97510.97;;;8.56;100.00
18858;BME280;9558;50.178;8.370;2023-11-21T00:15:04;97511.63;;;8.58;100.00
18858;BME280;9558;50.178;8.370;2023-11-21T00:17:54;97509.03;;;8.58;100.00
18858;BME280;9558;50.178;8.370;2023-11-21T00:20:41;97514.19;;;8.58;100.00
18858;BME280;9558;50.178;8.370;2023-11-21T00:23:28;97520.59;;;8.62;100.00
18858;BME280;9558;50.178;8.370;2023-11-21T00:26:14;97509.66;;;8.60;100.00
18858;BME280;9558;50.178;8.370;2023-11-21T00:29:01;97517.03;;;8.63;100.00
18858;BME280;9558;50.178;8.370;2023-11-21T00:31:49;97519.97;;;8.60;100.00
18858;BME280;9558;50.178;8.370;2023-11-21T00:34:36;97513.22;;;8.59;100.00
18858;BME280;9558;50.178;8.370;2023-11-21T00:37:22;97519.19;;;8.59;100.00
18858;BME280;9558;50.178;8.370;2023-11-21T00:40:10;97525.13;;;8.60;100.00
18858;BME280;9558;50.178;8.370;2023-11-21T00:42:58;97519.19;;;8.59;100.00
18858;BME280;9558;50.178;8.370;2023-11-21T00:45:44;97519.00;;;8.61;100.00
18858;BME280;9558;50.178;8.370;2023-11-21T00:48:35;97514.81;;;8.60;100.00
18858;BME280;9558;50.178;8.370;2023-11-21T00:51:22;97517.22;;;8.61;100.00
18858;BME280;9558;50.178;8.370;2023-11-21T00:54:09;97519.28;;;8.66;100.00
18858;BME280;9558;50.178;8.370;2023-11-21T00:56:56;97516.88;;;8.64;100.00
18858;BME280;9558;50.178;8.370;2023-11-21T00:59:42;97514.81;;;8.60;100.00
18858;BME280;9558;50.178;8.370;2023-11-21T01:02:29;97514.38;;;8.56;100.00
18858;BME280;9558;50.178;8.370;2023-11-21T01:05:17;97522.91;;;8.57;100.00
18858;BME280;9558;50.178;8.370;2023-11-21T01:08:05;97529.03;;;8.56;100.00
18858;BME280;9558;50.178;8.370;2023-11-21T01:10:52;97522.31;;;8.55;100.00
18858;BME280;9558;50.178;8.370;2023-11-21T01:13:40;97525.84;;;8.54;100.00
18858;BME280;9558;50.178;8.370;2023-11-21T01:16:27;97536.16;;;8.54;100.00
18858;BME280;9558;50.178;8.370;2023-11-21T01:19:13;97534.56;;;8.53;100.00
18858;BME280;9558;50.178;8.370;2023-11-21T01:22:01;97541.16;;;8.55;100.00
18858;BME280;9558;50.178;8.370;2023-11-21T01:24:49;97531.78;;;8.54;100.00
18858;BME280;9558;50.178;8.370;2023-11-21T01:27:36;97537.78;;;8.55;100.00
18858;BME280;9558;50.178;8.370;2023-11-21T01:30:22;97536.78;;;8.56;100.00
18858;BME280;9558;50.178;8.370;2023-11-21T01:33:09;97538.56;;;8.55;100.00
18858;BME280;9558;50.178;8.370;2023-11-21T01:35:56;97542.94;;;8.55;100.00
18858;BME280;9558;50.178;8.370;2023-11-21T01:38:44;97542.75;;;8.56;100.00
18858;BME280;9558;50.178;8.370;2023-11-21T01:41:31;97549.66;;;8.56;100.00
18858;BME280;9558;50.178;8.370;2023-11-21T01:44:17;97556.00;;;8.53;100.00
18858;BME280;9558;50.178;8.370;2023-11-21T01:47:05;97550.03;;;8.53;100.00
18858;BME280;9558;50.178;8.370;2023-11-21T01:49:52;97555.19;;;8.53;100.00
18858;BME280;9558;50.178;8.370;2023-11-21T01:52:39;97556.19;;;8.52;100.00
18858;BME280;9558;50.178;8.370;2023-11-21T01:55:27;97552.78;;;8.51;100.00
18858;BME280;9558;50.178;8.370;2023-11-21T01:58:15;97556.34;;;8.50;100.00
18858;BME280;9558;50.178;8.370;2023-11-21T02:01:02;97563.28;;;8.50;100.00
18858;BME280;9558;50.178;8.370;2023-11-21T02:03:49;97559.09;;;8.48;100.00
18858;BME280;9558;50.178;8.370;2023-11-21T02:06:35;97567.81;;;8.47;100.00
18858;BME280;9558;50.178;8.370;2023-11-21T02:09:25;97560.09;;;8.47;100.00
18858;BME280;9558;50.178;8.370;2023-11-21T02:12:13;97559.72;;;8.51;100.00
18858;BME280;9558;50.178;8.370;2023-11-21T02:15:02;97557.03;;;8.44;100.00
18858;BME280;9558;50.178;8.370;2023-11-21T02:17:50;97561.75;;;8.40;100.00
18858;BME280;9558;50.178;8.370;2023-11-21T02:20:37;97559.66;;;8.36;100.00
18858;BME280;9558;50.178;8.370;2023-11-21T02:23:28;97558.25;;;8.33;100.00
18858;BME280;9558;50.178;8.370;2023-11-21T02:26:15;97551.84;;;8.29;100.00
18858;BME280;9558;50.178;8.370;2023-11-21T02:29:02;97550.97;;;8.22;100.00
18858;BME280;9558;50.178;8.370;2023-11-21T02:31:51;97552.28;;;8.18;100.00
18858;BME280;9558;50.178;8.370;2023-11-21T02:34:40;97561.34;;;8.13;100.00
18858;BME280;9558;50.178;8.370;2023-11-21T02:37:26;97557.66;;;8.08;100.00
18858;BME280;9558;50.178;8.370;2023-11-21T02:40:14;97562.34;;;8.04;100.00
18858;BME280;9558;50.178;8.370;2023-11-21T02:43:03;97567.69;;;8.03;100.00
18858;BME280;9558;50.178;8.370;2023-11-21T02:45:51;97563.06;;;7.98;100.00
18858;BME280;9558;50.178;8.370;2023-11-21T02:48:37;97569.72;;;7.92;100.00
18858;BME280;9558;50.178;8.370;2023-11-21T02:51:24;97559.94;;;7.88;100.00
18858;BME280;9558;50.178;8.370;2023-11-21T02:54:11;97562.22;;;7.83;100.00
18858;BME280;9558;50.178;8.370;2023-11-21T02:56:59;97565.94;;;7.80;100.00
18858;BME280;9558;50.178;8.370;2023-11-21T02:59:45;97574.53;;;7.72;100.00
18858;BME280;9558;50.178;8.370;2023-11-21T03:02:32;97567.94;;;7.70;100.00
18858;BME280;9558;50.178;8.370;2023-11-21T03:05:19;97572.47;;;7.68;100.00
18858;BME280;9558;50.178;8.370;2023-11-21T03:08:05;97566.84;;;7.64;100.00
18858;BME280;9558;50.178;8.370;2023-11-21T03:10:52;97573.78;;;7.64;100.00
18858;BME280;9558;50.178;8.370;2023-11-21T03:13:40;97566.84;;;7.64;100.00
18858;BME280;9558;50.178;8.370;2023-11-21T03:16:27;97574.41;;;7.66;100.00
18858;BME280;9558;50.178;8.370;2023-11-21T03:19:14;97575.22;;;7.66;100.00
18858;BME280;9558;50.178;8.370;2023-11-21T03:22:01;97573.09;;;7.70;100.00
18858;BME280;9558;50.178;8.370;2023-11-21T03:24:49;97577.09;;;7.72;100.00
18858;BME280;9558;50.178;8.370;2023-11-21T03:27:36;97577.41;;;7.77;100.00
18858;BME280;9558;50.178;8.370;2023-11-21T03:30:25;97589.94;;;7.81;100.00
18858;BME280;9558;50.178;8.370;2023-11-21T03:33:12;97593.59;;;7.86;100.00
18858;BME280;9558;50.178;8.370;2023-11-21T03:35:58;97600.31;;;7.87;100.00
18858;BME280;9558;50.178;8.370;2023-11-21T03:38:45;97608.69;;;7.89;100.00
18858;BME280;9558;50.178;8.370;2023-11-21T03:41:32;97611.72;;;7.93;100.00
18858;BME280;9558;50.178;8.370;2023-11-21T03:44:19;97606.88;;;7.98;100.00
18858;BME280;9558;50.178;8.370;2023-11-21T03:47:07;97606.69;;;8.00;100.00
18858;BME280;9558;50.178;8.370;2023-11-21T03:49:54;97609.09;;;8.01;100.00
18858;BME280;9558;50.178;8.370;2023-11-21T03:52:40;97602.00;;;8.03;100.00
18858;BME280;9558;50.178;8.370;2023-11-21T03:55:28;97620.22;;;8.02;100.00
18858;BME280;9558;50.178;8.370;2023-11-21T03:58:16;97623.13;;;7.99;100.00
18858;BME280;9558;50.178;8.370;2023-11-21T04:01:03;97615.56;;;7.97;100.00
18858;BME280;9558;50.178;8.370;2023-11-21T04:03:51;97615.72;;;7.95;100.00
18858;BME280;9558;50.178;8.370;2023-11-21T04:06:38;97615.28;;;7.92;100.00
18858;BME280;9558;50.178;8.370;2023-11-21T04:09:24;97614.63;;;7.90;100.00
18858;BME280;9558;50.178;8.370;2023-11-21T04:12:11;97619.19;;;7.88;100.00
18858;BME280;9558;50.178;8.370;2023-11-21T04:14:58;97621.94;;;7.86;100.00
18858;BME280;9558;50.178;8.370;2023-11-21T04:17:44;97622.09;;;7.85;100.00
18858;BME280;9558;50.178;8.370;2023-11-21T04:20:32;97634.81;;;7.86;100.00
18858;BME280;9558;50.178;8.370;2023-11-21T04:23:19;97632.56;;;7.83;100.00
18858;BME280;9558;50.178;8.370;2023-11-21T04:26:06;97639.31;;;7.84;100.00
18858;BME280;9558;50.178;8.370;2023-11-21T04:28:52;97641.09;;;7.84;100.00
18858;BME280;9558;50.178;8.370;2023-11-21T04:31:39;97636.56;;;7.86;100.00
18858;BME280;9558;50.178;8.370;2023-11-21T04:34:27;97635.59;;;7.87;100.00
18858;BME280;9558;50.178;8.370;2023-11-21T04:37:16;97641.41;;;7.89;100.00
18858;BME280;9558;50.178;8.370;2023-11-21T04:40:04;97652.50;;;7.89;100.00
18858;BME280;9558;50.178;8.370;2023-11-21T04:42:52;97649.75;;;7.91;100.00
18858;BME280;9558;50.178;8.370;2023-11-21T04:45:38;97655.50;;;7.93;100.00
18858;BME280;9558;50.178;8.370;2023-11-21T04:48:26;97655.38;;;7.94;100.00
18858;BME280;9558;50.178;8.370;2023-11-21T04:51:13;97656.16;;;7.95;100.00
18858;BME280;9558;50.178;8.370;2023-11-21T04:54:01;97665.34;;;7.98;100.00
18858;BME280;9558;50.178;8.370;2023-11-21T04:56:48;97667.75;;;7.99;100.00
18858;BME280;9558;50.178;8.370;2023-11-21T04:59:34;97668.69;;;7.98;100.00
18858;BME280;9558;50.178;8.370;2023-11-21T05:02:21;97676.44;;;7.98;100.00
18858;BME280;9558;50.178;8.370;2023-11-21T05:05:09;97672.25;;;7.97;100.00
18858;BME280;9558;50.178;8.370;2023-11-21T05:07:55;97677.56;;;7.95;100.00
18858;BME280;9558;50.178;8.370;2023-11-21T05:10:43;97677.75;;;7.94;100.00
18858;BME280;9558;50.178;8.370;2023-11-21T05:13:31;97695.78;;;7.94;100.00
18858;BME280;9558;50.178;8.370;2023-11-21T05:16:18;97688.22;;;7.92;100.00
18858;BME280;9558;50.178;8.370;2023-11-21T05:19:05;97692.56;;;7.92;100.00
18858;BME280;9558;50.178;8.370;2023-11-21T05:21:52;97688.38;;;7.91;100.00
18858;BME280;9558;50.178;8.370;2023-11-21T05:24:39;97695.50;;;7.89;100.00
18858;BME280;9558;50.178;8.370;2023-11-21T05:27:27;97700.00;;;7.87;100.00
18858;BME280;9558;50.178;8.370;2023-11-21T05:30:14;97705.16;;;7.87;100.00
18858;BME280;9558;50.178;8.370;2023-11-21T05:33:00;97709.22;;;7.81;100.00
18858;BME280;9558;50.178;8.370;2023-11-21T05:35:47;97713.75;;;7.79;100.00
18858;BME280;9558;50.178;8.370;2023-11-21T05:38:35;97712.13;;;7.78;100.00
18858;BME280;9558;50.178;8.370;2023-11-21T05:41:22;97716.50;;;7.77;100.00
18858;BME280;9558;50.178;8.370;2023-11-21T05:44:10;97724.88;;;7.71;100.00
18858;BME280;9558;50.178;8.370;2023-11-21T05:46:57;97731.31;;;7.67;100.00
18858;BME280;9558;50.178;8.370;2023-11-21T05:49:44;97727.31;;;7.65;100.00
18858;BME280;9558;50.178;8.370;2023-11-21T05:52:36;97737.78;;;7.63;100.00
18858;BME280;9558;50.178;8.370;2023-11-21T05:55:23;97737.13;;;7.61;100.00
18858;BME280;9558;50.178;8.370;2023-11-21T05:58:11;97740.69;;;7.60;100.00
18858;BME280;9558;50.178;8.370;2023-11-21T06:01:00;97742.63;;;7.58;100.00
18858;BME280;9558;50.178;8.370;2023-11-21T06:03:47;97750.97;;;7.60;100.00
18858;BME280;9558;50.178;8.370;2023-11-21T06:06:34;97748.22;;;7.61;100.00
18858;BME280;9558;50.178;8.370;2023-11-21T06:09:21;97752.59;;;7.61;100.00
18858;BME280;9558;50.178;8.370;2023-11-21T06:12:08;97759.34;;;7.62;100.00
18858;BME280;9558;50.178;8.370;2023-11-21T06:14:54;97769.31;;;7.65;100.00
18858;BME280;9558;50.178;8.370;2023-11-21T06:17:43;97770.28;;;7.64;100.00
18858;BME280;9558;50.178;8.370;2023-11-21T06:20:30;97775.25;;;7.66;100.00
18858;BME280;9558;50.178;8.370;2023-11-21T06:23:17;97780.41;;;7.66;100.00
18858;BME280;9558;50.178;8.370;2023-11-21T06:26:04;97783.81;;;7.66;100.00
18858;BME280;9558;50.178;8.370;2023-11-21T06:28:51;97787.97;;;7.67;100.00
18858;BME280;9558;50.178;8.370;2023-11-21T06:31:39;97789.25;;;7.71;100.00
18858;BME280;9558;50.178;8.370;2023-11-21T06:34:28;97799.22;;;7.74;100.00
18858;BME280;9558;50.178;8.370;2023-11-21T06:37:15;97791.97;;;7.78;100.00
18858;BME280;9558;50.178;8.370;2023-11-21T06:40:03;97788.59;;;7.77;100.00
18858;BME280;9558;50.178;8.370;2023-11-21T06:42:50;97794.22;;;7.81;100.00
18858;BME280;9558;50.178;8.370;2023-11-21T06:45:37;97796.44;;;7.84;100.00
18858;BME280;9558;50.178;8.370;2023-11-21T06:48:24;97811.44;;;7.89;100.00
18858;BME280;9558;50.178;8.370;2023-11-21T06:51:12;97811.25;;;7.90;100.00
18858;BME280;9558;50.178;8.370;2023-11-21T06:53:58;97828.97;;;7.93;100.00
18858;BME280;9558;50.178;8.370;2023-11-21T06:56:45;97820.28;;;7.94;100.00
18858;BME280;9558;50.178;8.370;2023-11-21T06:59:33;97822.69;;;7.96;100.00
18858;BME280;9558;50.178;8.370;2023-11-21T07:02:20;97824.25;;;7.97;100.00
18858;BME280;9558;50.178;8.370;2023-11-21T07:05:07;97834.56;;;7.97;100.00
18858;BME280;9558;50.178;8.370;2023-11-21T07:07:55;97828.78;;;7.95;100.00
18858;BME280;9558;50.178;8.370;2023-11-21T07:10:42;97835.56;;;7.96;100.00
18858;BME280;9558;50.178;8.370;2023-11-21T07:13:28;97843.91;;;7.98;100.00
18858;BME280;9558;50.178;8.370;2023-11-21T07:16:16;97852.44;;;7.99;100.00
18858;BME280;9558;50.178;8.370;2023-11-21T07:19:04;97860.00;;;8.00;100.00
18858;BME280;9558;50.178;8.370;2023-11-21T07:21:51;97864.84;;;8.03;100.00
18858;BME280;9558;50.178;8.370;2023-11-21T07:24:39;97859.34;;;8.06;100.00
18858;BME280;9558;50.178;8.370;2023-11-21T07:27:26;97858.41;;;8.07;100.00
18858;BME280;9558;50.178;8.370;2023-11-21T07:30:13;97871.75;;;8.11;100.00
18858;BME280;9558;50.178;8.370;2023-11-21T07:33:01;97876.88;;;8.11;100.00
18858;BME280;9558;50.178;8.370;2023-11-21T07:35:48;97878.97;;;8.16;100.00
18858;BME280;9558;50.178;8.370;2023-11-21T07:38:35;97881.06;;;8.20;100.00
18858;BME280;9558;50.178;8.370;2023-11-21T07:41:23;97884.78;;;8.18;100.00
18858;BME280;9558;50.178;8.370;2023-11-21T07:44:10;97887.34;;;8.18;100.00
18858;BME280;9558;50.178;8.370;2023-11-21T07:46:57;97886.06;;;8.13;100.00
18858;BME280;9558;50.178;8.370;2023-11-21T07:49:43;97884.28;;;8.14;100.00
18858;BME280;9558;50.178;8.370;2023-11-21T07:52:32;97883.50;;;8.13;100.00
18858;BME280;9558;50.178;8.370;2023-11-21T07:55:19;97895.25;;;8.16;100.00
18858;BME280;9558;50.178;8.370;2023-11-21T07:58:07;97890.88;;;8.17;100.00
18858;BME280;9558;50.178;8.370;2023-11-21T08:00:53;97897.31;;;8.21;100.00
18858;BME280;9558;50.178;8.370;2023-11-21T08:03:40;97900.53;;;8.23;100.00
18858;BME280;9558;50.178;8.370;2023-11-21T08:06:27;97910.66;;;8.24;100.00
18858;BME280;9558;50.178;8.370;2023-11-21T08:09:14;97913.25;;;8.24;100.00
18858;BME280;9558;50.178;8.370;2023-11-21T08:12:03;97918.56;;;8.23;100.00
18858;BME280;9558;50.178;8.370;2023-11-21T08:14:51;97915.19;;;8.22;100.00
18858;BME280;9558;50.178;8.370;2023-11-21T08:17:38;97922.94;;;8.22;100.00
18858;BME280;9558;50.178;8.370;2023-11-21T08:20:25;97922.31;;;8.20;100.00
18858;BME280;9558;50.178;8.370;2023-11-21T08:23:12;97924.72;;;8.22;100.00
18858;BME280;9558;50.178;8.370;2023-11-21T08:26:01;97936.63;;;8.23;100.00
18858;BME280;9558;50.178;8.370;2023-11-21T08:28:48;97938.22;;;8.24;100.00
18858;BME280;9558;50.178;8.370;2023-11-21T08:31:39;97942.72;;;8.30;100.00
18858;BME280;9558;50.178;8.370;2023-11-21T08:34:26;97945.59;;;8.35;100.00
18858;BME280;9558;50.178;8.370;2023-11-21T08:37:14;97947.22;;;8.36;100.00
18858;BME280;9558;50.178;8.370;2023-11-21T08:40:01;97952.38;;;8.36;100.00
18858;BME280;9558;50.178;8.370;2023-11-21T08:42:49;97946.88;;;8.39;100.00
18858;BME280;9558;50.178;8.370;2023-11-21T08:45:38;97956.88;;;8.42;100.00
18858;BME280;9558;50.178;8.370;2023-11-21T08:48:25;97951.53;;;8.44;100.00
18858;BME280;9558;50.178;8.370;2023-11-21T08:51:13;97956.56;;;8.45;100.00
18858;BME280;9558;50.178;8.370;2023-11-21T08:54:01;97967.19;;;8.42;100.00
18858;BME280;9558;50.178;8.370;2023-11-21T08:56:50;97963.97;;;8.40;100.00
18858;BME280;9558;50.178;8.370;2023-11-21T08:59:36;97965.56;;;8.41;100.00
18858;BME280;9558;50.178;8.370;2023-11-21T09:02:25;97963.31;;;8.38;100.00
18858;BME280;9558;50.178;8.370;2023-11-21T09:05:14;97959.47;;;8.34;100.00
18858;BME280;9558;50.178;8.370;2023-11-21T09:08:01;97970.25;;;8.38;100.00
18858;BME280;9558;50.178;8.370;2023-11-21T09:10:48;97976.88;;;8.40;100.00
18858;BME280;9558;50.178;8.370;2023-11-21T09:13:34;97979.13;;;8.43;100.00
18858;BME280;9558;50.178;8.370;2023-11-21T09:16:22;97983.97;;;8.46;100.00
18858;BME280;9558;50.178;8.370;2023-11-21T09:19:08;97985.41;;;8.49;100.00
18858;BME280;9558;50.178;8.370;2023-11-21T09:21:57;97990.91;;;8.46;100.00
18858;BME280;9558;50.178;8.370;2023-11-21T09:24:43;98000.72;;;8.51;100.00
18858;BME280;9558;50.178;8.370;2023-11-21T09:27:30;98003.13;;;8.52;100.00
18858;BME280;9558;50.178;8.370;2023-11-21T09:30:17;98004.56;;;8.55;100.00
18858;BME280;9558;50.178;8.370;2023-11-21T09:33:05;98001.31;;;8.61;100.00
18858;BME280;9558;50.178;8.370;2023-11-21T09:35:54;98005.00;;;8.67;100.00
18858;BME280;9558;50.178;8.370;2023-11-21T09:38:43;98007.41;;;8.68;100.00
18858;BME280;9558;50.178;8.370;2023-11-21T09:41:34;98015.78;;;8.70;100.00
18858;BME280;9558;50.178;8.370;2023-11-21T09:44:32;98010.78;;;8.77;100.00
18858;BME280;9558;50.178;8.370;2023-11-21T09:47:22;98012.53;;;8.85;100.00
18858;BME280;9558;50.178;8.370;2023-11-21T09:50:09;98014.09;;;8.94;100.00
18858;BME280;9558;50.178;8.370;2023-11-21T09:53:01;98019.22;;;9.02;100.00
18858;BME280;9558;50.178;8.370;2023-11-21T09:55:53;98020.44;;;9.14;100.00
18858;BME280;9558;50.178;8.370;2023-11-21T09:58:40;98015.22;;;9.23;100.00
18858;BME280;9558;50.178;8.370;2023-11-21T10:01:28;98024.38;;;9.33;100.00
18858;BME280;9558;50.178;8.370;2023-11-21T10:04:15;98033.50;;;9.44;100.00
18858;BME280;9558;50.178;8.370;2023-11-21T10:07:03;98025.72;;;9.52;100.00
18858;BME280;9558;50.178;8.370;2023-11-21T10:09:54;98024.00;;;9.68;100.00
18858;BME280;9558;50.178;8.370;2023-11-21T10:12:43;98031.69;;;9.76;100.00
18858;BME280;9558;50.178;8.370;2023-11-21T10:15:34;98024.69;;;9.85;100.00
18858;BME280;9558;50.178;8.370;2023-11-21T10:18:22;98036.91;;;9.91;100.00
18858;BME280;9558;50.178;8.370;2023-11-21T10:21:10;98037.97;;;9.97;100.00
18858;BME280;9558;50.178;8.370;2023-11-21T10:23:57;98047.97;;;10.00;100.00
18858;BME280;9558;50.178;8.370;2023-11-21T10:26:44;98047.63;;;10.03;100.00
18858;BME280;9558;50.178;8.370;2023-11-21T10:29:35;98045.69;;;10.05;100.00
18858;BME280;9558;50.178;8.370;2023-11-21T10:32:27;98044.19;;;10.11;100.00
18858;BME280;9558;50.178;8.370;2023-11-21T10:35:16;98053.38;;;10.13;100.00
18858;BME280;9558;50.178;8.370;2023-11-21T10:38:03;98051.50;;;10.22;100.00
18858;BME280;9558;50.178;8.370;2023-11-21T10:40:50;98056.91;;;10.35;100.00
18858;BME280;9558;50.178;8.370;2023-11-21T10:43:38;98053.59;;;10.42;100.00
18858;BME280;9558;50.178;8.370;2023-11-21T10:46:27;98045.53;;;10.45;100.00
18858;BME280;9558;50.178;8.370;2023-11-21T10:49:17;98050.16;;;10.49;100.00
18858;BME280;9558;50.178;8.370;2023-11-21T10:52:04;98046.41;;;10.52;100.00
18858;BME280;9558;50.178;8.370;2023-11-21T10:54:51;98043.09;;;10.58;100.00
18858;BME280;9558;50.178;8.370;2023-11-21T10:57:38;98042.56;;;10.63;100.00
18858;BME280;9558;50.178;8.370;2023-11-21T11:00:25;98048.19;;;10.66;100.00
18858;BME280;9558;50.178;8.370;2023-11-21T11:03:15;98057.41;;;10.69;100.00
18858;BME280;9558;50.178;8.370;2023-11-21T11:06:02;98057.03;;;10.72;100.00
18858;BME280;9558;50.178;8.370;2023-11-21T11:08:50;98053.81;;;10.70;100.00
18858;BME280;9558;50.178;8.370;2023-11-21T11:11:37;98059.81;;;10.70;100.00
18858;BME280;9558;50.178;8.370;2023-11-21T11:14:26;98056.75;;;10.67;100.00
18858;BME280;9558;50.178;8.370;2023-11-21T11:17:13;98059.34;;;10.67;100.00
18858;BME280;9558;50.178;8.370;2023-11-21T11:20:02;98055.97;;;10.66;100.00
18858;BME280;9558;50.178;8.370;2023-11-21T11:23:04;98051.34;;;10.62;100.00
18858;BME280;9558;50.178;8.370;2023-11-21T11:26:06;98054.53;;;10.64;100.00
18858;BME280;9558;50.178;8.370;2023-11-21T11:29:00;98056.03;;;10.58;100.00
18858;BME280;9558;50.178;8.370;2023-11-21T11:32:02;98050.88;;;10.58;100.00
18858;BME280;9558;50.178;8.370;2023-11-21T11:34:55;98061.56;;;10.55;100.00
18858;BME280;9558;50.178;8.370;2023-11-21T11:37:46;98057.28;;;10.47;100.00
18858;BME280;9558;50.178;8.370;2023-11-21T11:40:39;98060.13;;;10.37;100.00
18858;BME280;9558;50.178;8.370;2023-11-21T11:43:27;98063.19;;;10.33;100.00
18858;BME280;9558;50.178;8.370;2023-11-21T11:46:14;98070.69;;;10.28;100.00
18858;BME280;9558;50.178;8.370;2023-11-21T11:49:02;98069.63;;;10.22;100.00
18858;BME280;9558;50.178;8.370;2023-11-21T11:52:36;98071.75;;;10.18;100.00
18858;BME280;9558;50.178;8.370;2023-11-21T11:55:25;98063.06;;;10.11;100.00
18858;BME280;9558;50.178;8.370;2023-11-21T11:58:16;98064.41;;;10.07;100.00
18858;BME280;9558;50.178;8.370;2023-11-21T12:01:06;98062.81;;;10.06;100.00
18858;BME280;9558;50.178;8.370;2023-11-21T12:04:22;98068.31;;;10.03;100.00
18858;BME280;9558;50.178;8.370;2023-11-21T12:07:13;98073.47;;;10.03;100.00
18858;BME280;9558;50.178;8.370;2023-11-21T12:10:01;98071.25;;;10.00;100.00
18858;BME280;9558;50.178;8.370;2023-11-21T12:12:51;98072.56;;;9.96;100.00
18858;BME280;9558;50.178;8.370;2023-11-21T12:15:39;98078.78;;;9.86;100.00
18858;BME280;9558;50.178;8.370;2023-11-21T12:18:27;98085.13;;;9.76;100.00
18858;BME280;9558;50.178;8.370;2023-11-21T12:21:14;98083.25;;;9.69;100.00
18858;BME280;9558;50.178;8.370;2023-11-21T12:24:02;98093.59;;;9.69;100.00
18858;BME280;9558;50.178;8.370;2023-11-21T12:26:49;98096.34;;;9.68;100.00
18858;BME280;9558;50.178;8.370;2023-11-21T12:29:40;98095.41;;;9.61;100.00
18858;BME280;9558;50.178;8.370;2023-11-21T12:32:27;98092.66;;;9.62;100.00
18858;BME280;9558;50.178;8.370;2023-11-21T12:35:14;98097.03;;;9.62;100.00
18858;BME280;9558;50.178;8.370;2023-11-21T12:38:04;98104.44;;;9.65;100.00
18858;BME280;9558;50.178;8.370;2023-11-21T12:40:51;98100.91;;;9.66;100.00
18858;BME280;9558;50.178;8.370;2023-11-21T12:43:40;98101.50;;;9.68;100.00
18858;BME280;9558;50.178;8.370;2023-11-21T12:46:28;98099.91;;;9.67;100.00
18858;BME280;9558;50.178;8.370;2023-11-21T12:49:17;98109.25;;;9.68;100.00
18858;BME280;9558;50.178;8.370;2023-11-21T12:52:05;98111.84;;;9.68;100.00
18858;BME280;9558;50.178;8.370;2023-11-21T12:54:52;98117.81;;;9.68;100.00
18858;BME280;9558;50.178;8.370;2023-11-21T12:57:41;98112.47;;;9.70;100.00
18858;BME280;9558;50.178;8.370;2023-11-21T13:00:31;98104.72;;;9.70;100.00
18858;BME280;9558;50.178;8.370;2023-11-21T13:03:20;98108.56;;;9.74;100.00
18858;BME280;9558;50.178;8.370;2023-11-21T13:06:11;98114.22;;;9.78;100.00
18858;BME280;9558;50.178;8.370;2023-11-21T13:08:58;98114.16;;;9.86;100.00
18858;BME280;9558;50.178;8.370;2023-11-21T13:11:45;98119.44;;;9.93;100.00
18858;BME280;9558;50.178;8.370;2023-11-21T13:14:32;98121.97;;;10.01;100.00
18858;BME280;9558;50.178;8.370;2023-11-21T13:17:18;98123.19;;;10.13;100.00
18858;BME280;9558;50.178;8.370;2023-11-21T13:20:10;98124.91;;;10.21;100.00
18858;BME280;9558;50.178;8.370;2023-11-21T13:23:07;98128.88;;;10.32;100.00
18858;BME280;9558;50.178;8.370;2023-11-21T13:25:54;98128.47;;;10.43;100.00
18858;BME280;9558;50.178;8.370;2023-11-21T13:28:41;98128.38;;;10.51;100.00
18858;BME280;9558;50.178;8.370;2023-11-21T13:31:31;98133.06;;;10.56;100.00
18858;BME280;9558;50.178;8.370;2023-11-21T13:34:22;98136.44;;;10.57;100.00
18858;BME280;9558;50.178;8.370;2023-11-21T13:37:14;98148.75;;;10.54;100.00
18858;BME280;9558;50.178;8.370;2023-11-21T13:40:01;98144.63;;;10.45;100.00
18858;BME280;9558;50.178;8.370;2023-11-21T13:42:56;98153.09;;;10.39;100.00
18858;BME280;9558;50.178;8.370;2023-11-21T13:45:45;98158.47;;;10.29;100.00
18858;BME280;9558;50.178;8.370;2023-11-21T13:48:33;98159.66;;;10.18;100.00
18858;BME280;9558;50.178;8.370;2023-11-21T13:51:27;98158.75;;;10.11;100.00
18858;BME280;9558;50.178;8.370;2023-11-21T13:54:24;98164.59;;;10.05;100.00
18858;BME280;9558;50.178;8.370;2023-11-21T13:57:11;98160.97;;;9.91;100.00
18858;BME280;9558;50.178;8.370;2023-11-21T13:59:59;98171.34;;;9.83;100.00
18858;BME280;9558;50.178;8.370;2023-11-21T14:02:47;98173.50;;;9.79;100.00
18858;BME280;9558;50.178;8.370;2023-11-21T14:05:34;98169.97;;;9.72;100.00
18858;BME280;9558;50.178;8.370;2023-11-21T14:08:21;98169.03;;;9.65;100.00
18858;BME280;9558;50.178;8.370;2023-11-21T14:11:15;98164.38;;;9.60;100.00
18858;BME280;9558;50.178;8.370;2023-11-21T14:14:03;98173.63;;;9.55;100.00
18858;BME280;9558;50.178;8.370;2023-11-21T14:16:51;98167.97;;;9.51;100.00
18858;BME280;9558;50.178;8.370;2023-11-21T14:19:38;98174.25;;;9.48;100.00
18858;BME280;9558;50.178;8.370;2023-11-21T14:22:28;98175.25;;;9.47;100.00
18858;BME280;9558;50.178;8.370;2023-11-21T14:25:15;98171.06;;;9.46;100.00
18858;BME280;9558;50.178;8.370;2023-11-21T14:28:04;98182.34;;;9.45;100.00
18858;BME280;9558;50.178;8.370;2023-11-21T14:30:52;98182.06;;;9.40;100.00
18858;BME280;9558;50.178;8.370;2023-11-21T14:33:38;98181.41;;;9.38;100.00
18858;BME280;9558;50.178;8.370;2023-11-21T14:36:25;98179.00;;;9.37;100.00
18858;BME280;9558;50.178;8.370;2023-11-21T14:39:12;98188.06;;;9.32;100.00
18858;BME280;9558;50.178;8.370;2023-11-21T14:42:08;98179.19;;;9.27;100.00
18858;BME280;9558;50.178;8.370;2023-11-21T14:44:56;98189.22;;;9.22;100.00
18858;BME280;9558;50.178;8.370;2023-11-21T14:47:48;98194.69;;;9.19;100.00
18858;BME280;9558;50.178;8.370;2023-11-21T14:50:42;98196.66;;;9.16;100.00
18858;BME280;9558;50.178;8.370;2023-11-21T14:53:58;98192.44;;;9.15;100.00
18858;BME280;9558;50.178;8.370;2023-11-21T14:56:51;98201.03;;;9.16;100.00
18858;BME280;9558;50.178;8.370;2023-11-21T14:59:44;98207.31;;;9.13;100.00
18858;BME280;9558;50.178;8.370;2023-11-21T15:02:34;98204.56;;;9.15;100.00